This is the latest recevied weather packets stored in our database for station/object KJ6APE. If no packets are shown the sender has not sent any weather packets the latest 10 day(s).
| Time | Temp. | Humidity | Pressure | Rain* | Wind** | Luminosity | Snow |
|---|---|---|---|---|---|---|---|
| 1777526875 | 15° C | 69% | 1016.5 hPa | 0 mm | - | 0 W/m² | - |
| 1777526575 | 15° C | 69% | 1016.5 hPa | 0 mm | - | 0 W/m² | - |
| 1777526269 | 15° C | 69% | 1016.6 hPa | 0 mm | - | 0 W/m² | - |
| 1777525965 | 15° C | 69% | 1016.6 hPa | 0 mm | - | 0 W/m² | - |
| 1777525663 | 14.44° C | 70% | 1016.6 hPa | 0 mm | - | 0 W/m² | - |
| 1777525361 | 13.89° C | 73% | 1016.5 hPa | 0 mm | - | 0 W/m² | - |
| 1777525056 | 13.33° C | 74% | 1016.5 hPa | 0 mm | - | 0 W/m² | - |
| 1777524753 | 13.33° C | 72% | 1016.6 hPa | 0 mm | - | 0 W/m² | - |
| 1777524451 | 13.89° C | 72% | 1016.6 hPa | 0 mm | - | 0 W/m² | - |
| 1777524148 | 13.89° C | 69% | 1016.6 hPa | 0 mm | - | 0 W/m² | - |
| 1777523844 | 13.89° C | 69% | 1016.6 hPa | 0 mm | - | 0 W/m² | - |
| 1777523541 | 14.44° C | 68% | 1016.5 hPa | 0 mm | - | 0 W/m² | - |
| 1777523237 | 14.44° C | 67% | 1016.3 hPa | 0 mm | - | 0 W/m² | - |
| 1777522932 | 15° C | 66% | 1016.4 hPa | 0 mm | - | 0 W/m² | - |
| 1777522630 | 15° C | 65% | 1016.4 hPa | 0 mm | - | 0 W/m² | - |
| 1777522326 | 15° C | 67% | 1016.3 hPa | 0 mm | - | 0 W/m² | - |
| 1777522023 | 15° C | 65% | 1016.3 hPa | 0 mm | - | 0 W/m² | - |
| 1777521720 | 15.56° C | 62% | 1016.2 hPa | 0 mm | - | 0 W/m² | - |
| 1777521417 | 15.56° C | 62% | 1016.3 hPa | 0 mm | - | 0 W/m² | - |
| 1777521113 | 16.11° C | 61% | 1016.3 hPa | 0 mm | - | 0 W/m² | - |
| 1777520811 | 16.67° C | 59% | 1016 hPa | 0 mm | - | 0 W/m² | - |
| 1777520508 | 16.67° C | 59% | 1016.1 hPa | 0 mm | - | 0 W/m² | - |
| 1777520204 | 16.67° C | 59% | 1016.2 hPa | 0 mm | - | 0 W/m² | - |
| 1777519902 | 17.22° C | 59% | 1016.2 hPa | 0 mm | - | 0 W/m² | - |
| 1777519599 | 17.22° C | 58% | 1016.1 hPa | 0 mm | - | 0 W/m² | - |
* Rain latest hour (hover to see other rain measurements)
** Current wind speed in m/s (hover to see current wind gust speed)